• Join FlightAware (Why Join?)
  • Login
  • US Flag 
02:36PM EDT


 

Airport Tracker/Info


-or-


 

Live Flight TrackerFlight Track Log ✈ SWA267 ✈ 11-Apr-2013 ✈ KPHX - KSLC

Flight Track Log - Related Links

Times and Time Zones

All times are in EDT time to prevent confusion due to time zone crossing. See the SWA267 flight status page for this flight to view local times or setup timezone preferences in your user account.

Time Position Orientation Groundspeed Altitude Reporting Facility
EDT Latitude Longitude Course Direction KTS MPH feet Rate Location/Type
04:04PM 33.4333 -112.0333 268° West 158 182 2,100  Level Phoenix TRACON
04:05PM 33.4319 -112.0875 268° West 181 208 4,200 2,520 Climbing Albuquerque Center
04:06PM 33.4350 -112.1650 273° West 225 259 7,500 3,480 Climbing Albuquerque Center
04:07PM 33.5136 -112.1908 345° North 290 334 11,500 3,300 Climbing Albuquerque Center
04:08PM 33.5947 -112.1394 28° Northeast 335 386 14,400 2,820 Climbing Albuquerque Center
04:09PM 33.6769 -112.0664 36° Northeast 363 418 17,400 2,760 Climbing Albuquerque Center
04:10PM 33.7767 -111.9767 37° Northeast 394 453 20,200 2,460 Climbing Albuquerque Center
04:11PM 33.8678 -111.8944 37° Northeast 408 470 22,600 2,100 Climbing Albuquerque Center
04:12PM 33.9772 -111.8725 North 406 467 24,600 1,980 Climbing Albuquerque Center
04:13PM 34.0992 -111.8894 353° North 409 471 26,800 1,800 Climbing Albuquerque Center
04:14PM 34.2172 -111.9044 354° North 424 488 28,400 1,980 Climbing Albuquerque Center
04:15PM 34.3467 -111.9231 353° North 440 506 31,000 1,740 Climbing Albuquerque Center
04:16PM 34.4628 -111.9400 353° North 427 491 32,000 480 Climbing Albuquerque Center
04:17PM 34.5797 -111.9564 353° North 423 487 32,000  Level Albuquerque Center
04:18PM 34.6969 -111.9725 354° North 423 487 32,000 240 Level Albuquerque Center
04:19PM 34.8217 -111.9900 353° North 424 488 32,500 720 Climbing Albuquerque Center
04:20PM 34.9375 -112.0044 354° North 422 486 33,500 720 Climbing Albuquerque Center
04:21PM 35.0522 -112.0206 353° North 419 482 34,000 240 Climbing Albuquerque Center
04:22PM 35.1889 -112.0400 353° North 417 480 34,000  Level Albuquerque Center
04:23PM 35.3044 -112.0558 354° North 419 482 34,000  Level Albuquerque Center
04:24PM 35.4194 -112.0706 354° North 419 482 34,000  Level Albuquerque Center
04:25PM 35.5336 -112.0867 353° North 418 481 34,000  Level Albuquerque Center
04:26PM 35.6492 -112.1033 353° North 421 484 34,000  Level Los Angeles Center
04:27PM 35.7622 -112.1181 354° North 417 480 34,000  Level Los Angeles Center
04:29PM 35.8981 -112.1364 354° North 413 475 34,000  Level Los Angeles Center
04:30PM 36.0103 -112.1508 354° North 411 473 34,000  Level Los Angeles Center
04:31PM 36.1261 -112.1608 356° North 417 480 34,000  Level Los Angeles Center
04:32PM 36.2467 -112.1708 356° North 421 484 34,000  Level Los Angeles Center
04:33PM 36.3633 -112.1814 356° North 421 484 34,000  Level Los Angeles Center
04:34PM 36.5033 -112.1936 356° North 420 483 34,000  Level Los Angeles Center
04:35PM 36.6200 -112.2056 355° North 421 484 34,000  Level Los Angeles Center
04:36PM 36.7356 -112.2156 356° North 417 480 34,000  Level Los Angeles Center
04:37PM 36.8497 -112.2253 356° North 414 476 34,000  Level Los Angeles Center
04:38PM 36.9653 -112.2358 356° North 415 478 34,000  Level Los Angeles Center
04:39PM 37.0797 -112.2469 356° North 415 478 34,000  Level Los Angeles Center
04:40PM 37.2175 -112.2600 356° North 415 478 34,000  Level Los Angeles Center
04:41PM 37.3333 -112.2706 356° North 418 481 34,000  Level Los Angeles Center
04:42PM 37.4031 -112.2775 355° North 419 482 34,000  Level Salt Lake Center
04:43PM 37.5197 -112.2881 356° North 423 487 34,000  Level Salt Lake Center
04:44PM 37.6364 -112.2986 356° North 424 488 34,000  Level Salt Lake Center
04:45PM 37.7525 -112.2958 North 423 487 34,000  Level Salt Lake Center
04:46PM 37.8692 -112.2789 North 425 489 34,000  Level Salt Lake Center
04:47PM 38.0069 -112.2608 North 419 482 34,000  Level Salt Lake Center
04:48PM 38.1211 -112.2450 North 417 480 34,000  Level Salt Lake Center
04:49PM 38.2356 -112.2278 North 415 478 34,000 -60 Level Salt Lake Center
04:50PM 38.3508 -112.2117 North 417 480 33,900 -540 Descending Salt Lake Center
04:51PM 38.4656 -112.1964 North 417 480 32,900 -960 Descending Salt Lake Center
04:52PM 38.5806 -112.1819 North 416 479 32,000 -480 Descending Salt Lake Center
04:53PM 38.6914 -112.1661 North 403 464 32,000  Level Salt Lake Center
04:54PM 38.8272 -112.1467 North 407 468 32,000  Level Salt Lake Center
04:55PM 38.9406 -112.1317 North 409 471 32,000  Level Salt Lake Center
04:56PM 39.0531 -112.1158 North 406 467 32,000 -1,080 Level Salt Lake Center
04:57PM 39.1658 -112.1000 North 407 468 29,900 -2,220 Descending Salt Lake Center
04:58PM 39.2797 -112.0850 North 404 465 27,500 -2,280 Descending Salt Lake Center
04:59PM 39.3875 -112.0686 North 392 451 25,300 -2,100 Descending Salt Lake Center
05:00PM 39.4925 -112.0531 North 384 442 23,200 -2,220 Descending Salt Lake Center
05:01PM 39.6119 -112.0367 North 365 420 20,800 -2,100 Descending Salt Lake Center
05:02PM 39.7056 -112.0233 North 347 399 18,900 -1,800 Descending Salt Lake Center
05:03PM 39.7983 -112.0094 North 338 389 17,200 -1,920 Descending Salt Lake Center
05:04PM 39.8633 -112.0108 359° North 328 377 15,700 -1,800 Descending Salt Lake Center
05:04PM 39.8853 -111.9969 26° Northeast 321 369 15,400 -600 Descending Salt Lake Center
05:05PM 39.9639 -111.9967 360° North 304 350 15,000 -960 Descending Salt Lake Center
05:06PM 40.0497 -111.9844 North 296 341 13,600 -1,200 Descending Salt Lake Center
05:07PM 40.1306 -111.9639 11° North 286 329 12,400 -1,380 Descending Salt Lake Center
05:08PM 40.2083 -111.9592 North 287 330 10,800 -1,320 Descending Salt Lake Center
05:09PM 40.2836 -111.9478 North 298 343 10,100 -780 Descending Salt Lake Center
05:09PM 40.3072 -111.9397 15° North 291 335 9,900  Descending Salt Lake Center
05:10PM 40.3633 -111.9378 North 288 331 10,100 60 Climbing Salt Lake Center
05:10PM 40.3864 -111.9294 15° North 286 329 10,000 -420 Descending Salt Lake Center
05:11PM 40.4411 -111.9283 North 280 322 9,700 -720 Descending Salt Lake Center
05:11PM 40.4639 -111.9244 North 280 322 9,300 -720 Descending Salt Lake Center
05:12PM 40.5142 -111.9372 349° North 254 292 9,000 -540 Descending Salt Lake Center
05:12PM 40.5336 -111.9350 North 256 295 8,800 -900 Descending Salt Lake Center
05:13PM 40.5864 -111.9439 353° North 230 265 8,000 -1,140 Descending Salt Lake Center
05:13PM 40.5964 -111.9419 North 230 265 7,700 -1,200 Descending Salt Lake Center
05:14PM 40.6481 -111.9511 352° North 223 257 6,800 -1,080 Descending Salt Lake Center
05:14PM 40.6575 -111.9492 North 221 254 6,600 -1,020 Descending Salt Lake Center
05:15PM 40.6967 -111.9572 351° North 190 219 5,900 -1,200 Descending Salt Lake Center
05:15PM 40.7150 -111.9558 North 171 197 5,400 -1,020 Descending Salt Lake Center
05:16PM 40.7367 -111.9633 345° North 148 170 4,900 -780 Descending Salt Lake Center
05:16PM 40.7531 -111.9631 North 141 162 4,600 -480 Descending Salt Lake Center
05:18PM 40.7908 -111.9614 North 135 155 4,200 -420 Descending Salt Lake Center